Time;durP1;ratioP1;P1;durP2;ratioP2;P2;SDS_P1;SDS_P2;PMS_P1;PMS_P2;Temp;Humidity;BMP_temperature;BMP_pressure;BME280_temperature;BME280_humidity;BME280_pressure;Samples;Min_cycle;Max_cycle;Signal;HPM_P1;HPM_P2
2021/11/09 00:00:58;;;;;;;3.20;2.17;;;22.50;39.10;;;;;;5074212;28;20752;-63
2021/11/09 00:03:24;;;;;;;4.20;2.20;;;22.50;39.10;;;;;;5093017;28;20394;-62
2021/11/09 00:05:56;;;;;;;2.92;2.03;;;22.50;39.00;;;;;;5092540;28;20374;-62
2021/11/09 00:08:25;;;;;;;2.70;1.90;;;22.50;39.00;;;;;;5092911;28;20891;-62
2021/11/09 00:10:51;;;;;;;2.95;2.00;;;22.50;38.90;;;;;;5092295;28;20386;-62
2021/11/09 00:13:17;;;;;;;3.05;1.90;;;22.40;38.90;;;;;;5092781;28;20390;-62
2021/11/09 00:15:43;;;;;;;2.75;1.85;;;22.40;38.90;;;;;;5092714;28;20390;-62
2021/11/09 00:18:10;;;;;;;3.13;2.00;;;22.40;39.50;;;;;;5092819;28;20389;-62
2021/11/09 00:20:38;;;;;;;3.40;2.00;;;22.40;38.80;;;;;;5092297;28;20397;-62
2021/11/09 00:23:04;;;;;;;2.72;1.88;;;22.40;38.70;;;;;;5092509;28;20421;-62
2021/11/09 00:25:30;;;;;;;2.47;1.80;;;22.40;38.80;;;;;;5074362;28;20382;-62
2021/11/09 00:27:56;;;;;;;2.83;1.80;;;22.40;38.80;;;;;;5092470;28;20410;-62
2021/11/09 00:30:23;;;;;;;2.70;1.90;;;22.40;38.70;;;;;;5092397;28;20382;-62
2021/11/09 00:32:50;;;;;;;2.60;1.70;;;22.30;38.70;;;;;;5091887;28;20944;-62
2021/11/09 00:35:19;;;;;;;3.72;2.10;;;22.30;38.80;;;;;;5092364;28;20478;-77
2021/11/09 00:37:46;;;;;;;2.90;1.87;;;22.30;38.50;;;;;;5092215;28;20382;-62
2021/11/09 00:40:14;;;;;;;3.00;1.90;;;22.40;38.60;;;;;;5092256;28;20385;-62
2021/11/09 00:42:40;;;;;;;2.87;1.93;;;22.30;38.50;;;;;;5091726;28;20410;-63
2021/11/09 00:45:08;;;;;;;2.75;1.70;;;22.30;38.40;;;;;;5092409;28;20378;-62
2021/11/09 00:47:34;;;;;;;2.60;1.80;;;22.30;38.60;;;;;;5092058;28;20387;-62
2021/11/09 00:50:00;;;;;;;2.50;1.77;;;22.30;38.70;;;;;;5092040;28;20483;-64
2021/11/09 00:52:26;;;;;;;3.22;1.90;;;22.30;38.60;;;;;;5092127;28;20435;-62
2021/11/09 00:54:52;;;;;;;3.00;2.10;;;22.30;38.60;;;;;;5091497;28;20469;-62
2021/11/09 00:57:20;;;;;;;2.40;1.63;;;22.30;38.70;;;;;;5092019;28;20412;-62
2021/11/09 00:59:46;;;;;;;2.45;1.80;;;22.30;38.60;;;;;;5091862;28;20386;-62
2021/11/09 01:02:12;;;;;;;2.90;1.90;;;22.20;38.50;;;;;;5091977;28;20499;-62
2021/11/09 01:04:38;;;;;;;2.47;1.77;;;22.20;38.60;;;;;;5091652;28;20936;-62
2021/11/09 01:07:03;;;;;;;2.50;1.70;;;22.30;38.60;;;;;;5091599;28;20393;-62
2021/11/09 01:09:29;;;;;;;3.25;1.83;;;22.20;38.60;;;;;;5091763;28;20370;-62
2021/11/09 01:11:55;;;;;;;2.20;1.60;;;22.20;38.60;;;;;;5091773;28;20860;-62
2021/11/09 01:14:22;;;;;;;2.60;1.80;;;22.20;39.10;;;;;;5091796;28;20523;-62
2021/11/09 01:16:49;;;;;;;2.72;1.80;;;22.20;38.50;;;;;;5090482;28;20390;-62
2021/11/09 01:19:15;;;;;;;2.33;1.60;;;22.20;38.50;;;;;;5091138;28;20389;-62
2021/11/09 01:21:42;;;;;;;3.10;1.70;;;22.20;38.60;;;;;;5091206;28;20493;-62
2021/11/09 01:24:10;;;;;;;2.33;1.70;;;22.20;38.40;;;;;;5091599;28;20393;-62
2021/11/09 01:26:37;;;;;;;2.42;1.65;;;22.20;38.60;;;;;;5091314;28;20451;-62
2021/11/09 01:29:05;;;;;;;2.10;1.40;;;22.20;38.50;;;;;;5091300;28;20382;-62
2021/11/09 01:31:32;;;;;;;2.47;1.60;;;22.10;38.30;;;;;;5091344;28;20385;-62
2021/11/09 01:33:58;;;;;;;2.30;1.63;;;22.10;38.20;;;;;;5091369;28;20443;-62
2021/11/09 01:36:24;;;;;;;2.60;1.70;;;22.10;38.30;;;;;;5091527;28;20386;-62
2021/11/09 01:38:50;;;;;;;2.72;1.70;;;22.20;38.40;;;;;;5090955;28;20389;-62
2021/11/09 01:41:17;;;;;;;2.35;1.70;;;22.10;38.30;;;;;;5091383;28;20748;-62
2021/11/09 01:43:43;;;;;;;3.08;1.70;;;22.10;38.40;;;;;;5091452;28;20409;-62
2021/11/09 01:46:11;;;;;;;1.90;1.50;;;22.10;38.30;;;;;;5091465;28;20901;-62
2021/11/09 01:48:38;;;;;;;2.50;1.70;;;22.10;38.30;;;;;;5091096;28;20387;-77
2021/11/09 01:51:07;;;;;;;2.50;1.60;;;22.10;38.20;;;;;;5091054;28;20771;-62
2021/11/09 01:53:35;;;;;;;1.80;1.40;;;22.10;38.20;;;;;;5091362;28;20451;-62
2021/11/09 01:56:06;;;;;;;2.20;1.50;;;22.10;38.20;;;;;;5091064;28;20879;-62
2021/11/09 01:58:32;;;;;;;2.47;1.60;;;22.10;38.30;;;;;;5091357;28;20863;-62
2021/11/09 02:01:11;;;;;;;2.20;1.60;;;22.10;38.20;;;;;;5072987;28;20391;-62
2021/11/09 02:03:39;;;;;;;2.00;1.50;;;22.10;38.20;;;;;;5091172;28;20441;-62
2021/11/09 02:06:05;;;;;;;2.10;1.40;;;22.10;38.20;;;;;;5091176;28;20379;-62
2021/11/09 02:08:31;;;;;;;2.30;1.63;;;22.10;38.20;;;;;;5091121;28;20890;-62
2021/11/09 02:10:57;;;;;;;2.42;1.50;;;22.00;38.60;;;;;;5090691;28;20461;-62
2021/11/09 02:13:24;;;;;;;2.60;1.60;;;22.10;38.10;;;;;;5073049;28;20390;-62
2021/11/09 02:15:51;;;;;;;2.00;1.50;;;22.10;38.10;;;;;;5091064;28;20386;-62
2021/11/09 02:18:18;;;;;;;2.00;1.60;;;22.10;38.20;;;;;;5091132;28;20382;-62
2021/11/09 02:21:03;;;;;;;1.77;1.40;;;22.10;38.10;;;;;;5090328;28;20786;-62
2021/11/09 02:23:30;;;;;;;2.13;1.60;;;22.10;38.20;;;;;;5091026;28;20394;-62
2021/11/09 02:25:57;;;;;;;2.17;1.60;;;22.00;38.00;;;;;;5072770;28;20394;-62
2021/11/09 02:28:23;;;;;;;2.17;1.50;;;22.00;38.10;;;;;;5093260;28;20381;-62
2021/11/09 02:30:49;;;;;;;2.08;1.50;;;22.00;38.20;;;;;;5094267;28;20898;-62
2021/11/09 02:33:15;;;;;;;2.42;1.40;;;22.00;38.10;;;;;;5094760;28;20476;-62
2021/11/09 02:35:41;;;;;;;2.00;1.60;;;22.00;38.10;;;;;;5094589;28;20381;-62
2021/11/09 02:38:07;;;;;;;2.00;1.30;;;22.00;38.00;;;;;;5094638;28;20902;-62
2021/11/09 02:40:34;;;;;;;1.90;1.40;;;22.00;38.00;;;;;;5094577;28;20386;-62
2021/11/09 02:43:07;;;;;;;2.55;1.40;;;22.00;38.00;;;;;;5094098;28;20499;-62
2021/11/09 02:46:06;;;;;;;1.80;1.30;;;22.00;37.90;;;;;;5076366;28;20775;-62
2021/11/09 02:48:30;;;;;;;1.83;1.40;;;22.00;38.00;;;;;;5093064;28;20390;-62
2021/11/09 02:51:01;;;;;;;2.00;1.40;;;21.90;38.00;;;;;;5093670;28;20879;-62
2021/11/09 02:53:44;;;;;;;1.75;1.40;;;21.90;37.90;;;;;;5094202;28;20390;-62
2021/11/09 02:58:46;;;;;;;1.73;1.25;;;21.90;38.50;;;;;;5094071;28;20392;-62
2021/11/09 03:08:37;;;;;;;2.25;1.45;;;21.90;37.80;;;;;;5094095;28;20397;-62
2021/11/09 03:11:04;;;;;;;2.03;1.38;;;21.90;37.80;;;;;;5093562;28;20386;-62
2021/11/09 03:13:29;;;;;;;2.00;1.40;;;21.90;37.70;;;;;;5093976;28;20794;-62
2021/11/09 03:16:00;;;;;;;1.92;1.42;;;21.90;37.70;;;;;;5093773;28;20393;-62
2021/11/09 03:18:28;;;;;;;2.27;1.50;;;21.90;37.70;;;;;;5093883;28;20559;-62
2021/11/09 03:45:25;;;;;;;1.67;1.40;;;21.90;37.70;;;;;;5093431;28;20416;-61
2021/11/09 03:47:56;;;;;;;2.10;1.30;;;21.90;37.70;;;;;;5093216;28;20392;-61
2021/11/09 03:50:25;;;;;;;1.38;1.20;;;21.90;37.60;;;;;;5093338;28;20468;-61
2021/11/09 03:53:01;;;;;;;1.65;1.30;;;21.90;37.60;;;;;;5092662;28;20884;-61
2021/11/09 03:58:15;;;;;;;1.80;1.20;;;21.80;37.50;;;;;;5093045;28;20401;-61
2021/11/09 04:03:27;;;;;;;1.83;1.20;;;21.80;37.60;;;;;;5093093;28;20945;-75
2021/11/09 04:05:57;;;;;;;2.20;1.20;;;21.80;37.60;;;;;;5092922;28;20782;-76
2021/11/09 04:16:23;;;;;;;3.75;1.40;;;22.00;37.60;;;;;;5092737;28;20439;-61
2021/11/09 05:09:09;;;;;;;3.10;1.30;;;22.10;37.90;;;;;;5090434;28;20401;-62
2021/11/09 05:11:39;;;;;;;3.67;1.30;;;22.10;37.90;;;;;;5090447;28;20883;-62
2021/11/09 05:14:09;;;;;;;4.32;1.17;;;22.10;37.70;;;;;;5072796;28;20467;-62
2021/11/09 05:16:36;;;;;;;5.65;1.35;;;22.10;37.80;;;;;;5091889;28;20390;-63
2021/11/09 05:19:03;;;;;;;4.55;1.00;;;22.10;38.30;;;;;;5091910;28;20389;-73
2021/11/09 05:21:28;;;;;;;3.83;1.40;;;22.20;38.30;;;;;;5091449;28;20981;-71
2021/11/09 05:23:55;;;;;;;3.87;1.20;;;22.20;38.30;;;;;;5091528;28;20420;-63
2021/11/09 05:26:20;;;;;;;4.43;1.35;;;22.20;38.40;;;;;;5073755;28;20380;-63
2021/11/09 05:28:46;;;;;;;5.25;1.10;;;22.20;38.30;;;;;;5091319;28;20394;-74
2021/11/09 05:31:14;;;;;;;3.17;1.20;;;22.20;38.50;;;;;;5080298;28;21261;-66
2021/11/09 05:33:41;;;;;;;4.05;1.20;;;22.30;39.00;;;;;;5070909;28;20392;-73
2021/11/09 05:36:09;;;;;;;3.55;1.30;;;22.30;39.20;;;;;;5070979;28;20384;-73
2021/11/09 05:38:46;;;;;;;3.60;1.35;;;22.40;39.10;;;;;;5069966;28;20470;-63
2021/11/09 05:41:12;;;;;;;3.03;1.35;;;22.40;39.10;;;;;;5069964;28;20392;-73
2021/11/09 05:43:38;;;;;;;4.03;1.37;;;22.40;39.10;;;;;;5069896;28;20772;-65
2021/11/09 05:46:05;;;;;;;5.93;1.27;;;22.30;39.40;;;;;;5068148;28;20388;-71
2021/11/09 05:48:31;;;;;;;4.85;1.30;;;22.30;39.40;;;;;;5070568;28;20404;-73
2021/11/09 05:50:57;;;;;;;3.95;1.35;;;22.30;39.60;;;;;;5069806;28;20383;-63
2021/11/09 05:53:24;;;;;;;3.30;1.27;;;22.30;39.10;;;;;;5069595;28;20384;-72
2021/11/09 05:55:49;;;;;;;6.53;1.77;;;22.40;38.50;;;;;;5103158;28;20406;-64
2021/11/09 05:58:15;;;;;;;6.63;1.67;;;22.40;39.00;;;;;;5070781;28;20376;-72
2021/11/09 06:00:41;;;;;;;6.20;1.60;;;22.30;39.40;;;;;;5069317;28;20893;-72
2021/11/09 06:03:08;;;;;;;7.20;1.50;;;22.30;39.40;;;;;;5071927;28;20411;-72
2021/11/09 06:05:34;;;;;;;7.15;1.65;;;22.30;39.10;;;;;;5074307;28;20380;-63
2021/11/09 06:08:00;;;;;;;7.22;1.40;;;22.30;38.90;;;;;;5074345;28;20383;-73
2021/11/09 06:10:26;;;;;;;8.32;1.40;;;22.30;38.50;;;;;;5074277;28;20445;-73
2021/11/09 06:12:52;;;;;;;3.70;1.23;;;22.30;38.70;;;;;;5074024;28;20637;-72
2021/11/09 06:15:18;;;;;;;6.82;1.58;;;22.30;38.30;;;;;;5072897;28;20391;-73
2021/11/09 06:17:43;;;;;;;3.65;1.30;;;22.20;37.90;;;;;;5073977;28;20396;-67
2021/11/09 06:20:09;;;;;;;9.07;1.60;;;22.20;38.40;;;;;;5074026;28;20478;-68
2021/11/09 06:22:36;;;;;;;7.57;1.55;;;22.10;38.50;;;;;;5074119;28;20415;-72
2021/11/09 06:25:03;;;;;;;6.15;1.60;;;22.20;38.70;;;;;;5073812;28;20741;-73
2021/11/09 06:27:29;;;;;;;6.03;1.50;;;22.20;39.80;;;;;;5073840;28;20426;-69
2021/11/09 06:29:54;;;;;;;5.20;1.50;;;22.20;39.70;;;;;;5073972;28;20383;-72
2021/11/09 06:32:20;;;;;;;6.53;1.40;;;22.20;39.30;;;;;;5074047;28;20392;-63
2021/11/09 06:34:46;;;;;;;4.40;1.50;;;22.10;39.60;;;;;;5073503;28;20421;-62
2021/11/09 06:37:12;;;;;;;6.13;1.40;;;22.10;39.40;;;;;;5073490;28;20399;-72
2021/11/09 06:39:37;;;;;;;7.25;1.80;;;22.10;38.60;;;;;;5073420;28;20384;-63
2021/11/09 06:42:04;;;;;;;9.07;1.70;;;22.00;39.40;;;;;;5072972;28;20445;-71
2021/11/09 06:44:29;;;;;;;9.07;1.70;;;22.00;38.70;;;;;;5073604;28;20458;-69
2021/11/09 06:46:55;;;;;;;9.30;1.30;;;22.10;39.10;;;;;;5072355;28;20873;-66
2021/11/09 06:49:22;;;;;;;5.57;1.15;;;22.20;39.20;;;;;;5073110;28;20383;-74
2021/11/09 06:51:48;;;;;;;7.57;1.40;;;22.30;39.20;;;;;;5075267;28;20485;-73
2021/11/09 06:54:13;;;;;;;6.88;1.63;;;22.40;39.20;;;;;;5073630;28;20395;-63
2021/11/09 06:56:39;;;;;;;5.77;1.47;;;22.40;39.10;;;;;;5073015;28;20392;-68
2021/11/09 06:59:07;;;;;;;7.15;1.60;;;22.40;39.10;;;;;;5072845;28;20411;-63
2021/11/09 07:01:33;;;;;;;5.65;1.42;;;22.40;39.00;;;;;;5072918;28;20414;-63
2021/11/09 07:03:58;;;;;;;5.30;1.40;;;22.50;39.30;;;;;;5072718;28;20403;-74
2021/11/09 07:06:24;;;;;;;7.45;1.40;;;22.50;39.20;;;;;;5072764;28;20491;-64
2021/11/09 07:08:50;;;;;;;4.45;1.50;;;22.50;39.60;;;;;;5072407;28;20877;-63
2021/11/09 07:11:16;;;;;;;5.18;1.50;;;22.50;39.50;;;;;;5072470;28;20398;-64
2021/11/09 07:13:43;;;;;;;5.32;1.40;;;22.40;39.50;;;;;;5072633;28;20392;-72
2021/11/09 07:16:10;;;;;;;7.10;1.40;;;22.40;39.70;;;;;;5073000;28;20437;-74
2021/11/09 07:18:36;;;;;;;5.35;1.30;;;22.50;39.90;;;;;;5072356;28;20900;-71
2021/11/09 07:21:02;;;;;;;4.63;1.23;;;22.50;39.50;;;;;;5072064;28;20392;-75
2021/11/09 07:23:28;;;;;;;4.32;1.48;;;22.50;39.70;;;;;;5072208;28;20439;-70
2021/11/09 07:25:56;;;;;;;3.72;1.35;;;22.50;39.70;;;;;;5072032;28;20411;-74
2021/11/09 07:28:22;;;;;;;4.28;1.60;;;22.50;40.10;;;;;;5071916;28;20746;-74
2021/11/09 07:30:57;;;;;;;3.95;1.42;;;22.60;40.20;;;;;;5072698;28;20388;-64
2021/11/09 07:33:24;;;;;;;4.28;1.40;;;22.60;39.60;;;;;;5072607;28;20398;-78
2021/11/09 07:35:49;;;;;;;5.88;1.52;;;22.60;39.90;;;;;;5072476;28;20935;-74
2021/11/09 07:38:17;;;;;;;4.70;1.50;;;22.60;39.90;;;;;;5054194;28;20396;-73
2021/11/09 07:40:48;;;;;;;4.78;1.50;;;22.60;39.80;;;;;;5072362;28;20395;-72
2021/11/09 07:43:15;;;;;;;5.35;1.38;;;22.60;40.20;;;;;;5054084;28;20427;-63
2021/11/09 07:45:41;;;;;;;4.15;1.50;;;22.60;40.00;;;;;;5072563;28;20445;-73
2021/11/09 07:48:08;;;;;;;5.05;1.50;;;22.60;40.20;;;;;;5072576;28;20388;-79
2021/11/09 07:50:34;;;;;;;4.65;1.50;;;22.60;39.90;;;;;;5072712;28;20800;-75
2021/11/09 07:53:02;;;;;;;2.70;1.40;;;22.60;40.00;;;;;;5072393;28;20441;-78
2021/11/09 07:55:31;;;;;;;3.70;1.67;;;22.60;39.80;;;;;;5072902;28;20380;-80
2021/11/09 07:58:00;;;;;;;5.13;1.60;;;22.60;39.90;;;;;;5086332;28;20403;-82
2021/11/09 08:00:33;;;;;;;3.75;1.60;;;22.60;39.60;;;;;;5084139;28;20411;-75
2021/11/09 08:06:10;;;;;;;6.30;1.88;;;22.60;39.90;;;;;;5040444;28;20390;-74
2021/11/09 08:08:57;;;;;;;6.32;1.60;;;22.60;39.80;;;;;;5073160;28;20936;-72
2021/11/09 08:11:22;;;;;;;5.07;1.70;;;22.70;40.00;;;;;;5071791;28;20470;-85
2021/11/09 08:13:48;;;;;;;5.82;1.70;;;22.70;39.80;;;;;;5072898;28;20953;-64
2021/11/09 08:16:14;;;;;;;5.88;1.60;;;22.70;40.10;;;;;;5072053;28;20384;-68
2021/11/09 08:18:40;;;;;;;5.03;1.70;;;22.80;39.90;;;;;;5072447;28;20470;-79
2021/11/09 08:21:07;;;;;;;5.97;1.60;;;22.80;39.90;;;;;;5071203;28;20400;-78
2021/11/09 08:23:33;;;;;;;4.30;1.57;;;22.80;40.10;;;;;;5053800;28;20992;-79
2021/11/09 08:25:59;;;;;;;4.65;1.88;;;22.80;40.00;;;;;;5072379;28;20879;-84
2021/11/09 08:28:26;;;;;;;4.30;1.50;;;22.80;39.90;;;;;;5054394;28;20410;-79
2021/11/09 08:30:58;;;;;;;5.03;1.75;;;22.90;40.00;;;;;;5071693;28;20388;-78
2021/11/09 08:33:26;;;;;;;5.40;1.90;;;22.90;40.00;;;;;;5071844;28;20392;-69
2021/11/09 08:35:52;;;;;;;5.93;1.77;;;22.90;40.10;;;;;;5053253;28;20477;-63
2021/11/09 08:38:17;;;;;;;4.78;1.38;;;22.90;40.00;;;;;;5071489;28;20427;-65
2021/11/09 08:40:44;;;;;;;3.42;1.60;;;22.90;40.00;;;;;;5071274;28;20420;-62
2021/11/09 08:43:13;;;;;;;4.67;1.60;;;22.90;39.70;;;;;;5052819;28;20887;-77
2021/11/09 08:46:17;;;;;;;4.23;1.40;;;22.90;40.10;;;;;;5053448;28;20554;-75
2021/11/09 08:48:36;;;;;;;5.25;1.60;;;22.90;40.20;;;;;;5069417;28;20483;-77
2021/11/09 08:51:08;;;;;;;4.20;1.52;;;23.00;40.10;;;;;;5052832;28;20388;-77
2021/11/09 08:53:35;;;;;;;5.25;1.60;;;22.90;39.80;;;;;;5071473;28;20403;-77
2021/11/09 09:06:47;;;;;;;6.18;1.90;;;23.10;40.20;;;;;;5078753;28;20443;-79
2021/11/09 09:09:14;;;;;;;4.85;1.92;;;23.10;40.10;;;;;;5090964;28;20390;-76
2021/11/09 09:11:41;;;;;;;4.40;2.00;;;23.20;40.00;;;;;;5068511;28;20968;-74
2021/11/09 09:14:07;;;;;;;7.72;1.88;;;23.20;39.80;;;;;;5053641;28;20404;-72
2021/11/09 09:16:34;;;;;;;6.40;2.15;;;23.20;39.90;;;;;;5053727;28;20391;-71
2021/11/09 09:19:02;;;;;;;5.85;2.13;;;23.20;39.70;;;;;;5070804;28;20392;-69
2021/11/09 09:24:08;;;;;;;6.88;2.03;;;23.10;39.90;;;;;;5070105;28;20422;-70
2021/11/09 09:54:01;;;;;;;6.40;2.00;;;23.30;40.10;;;;;;5076152;28;20406;-66
2021/11/09 09:56:44;;;;;;;8.23;2.17;;;23.40;39.90;;;;;;5074635;28;20399;-65
2021/11/09 09:59:11;;;;;;;7.77;2.30;;;23.30;39.50;;;;;;5088303;28;20425;-65
2021/11/09 10:01:42;;;;;;;6.10;1.65;;;23.30;39.40;;;;;;5079796;28;20393;-65
2021/11/09 10:04:28;;;;;;;6.90;1.90;;;23.30;39.40;;;;;;5069160;28;20944;-65
2021/11/09 10:06:54;;;;;;;6.77;1.93;;;23.30;39.40;;;;;;5068508;28;20408;-66
2021/11/09 10:09:40;;;;;;;7.43;2.30;;;23.40;39.50;;;;;;5067845;28;20392;-63
2021/11/09 10:12:25;;;;;;;8.50;2.25;;;23.40;39.40;;;;;;5063692;28;20416;-66
2021/11/09 10:14:54;;;;;;;8.32;2.30;;;23.40;39.80;;;;;;5066433;28;20399;-65
2021/11/09 10:17:25;;;;;;;6.22;1.83;;;23.40;39.80;;;;;;5071120;28;20395;-68
2021/11/09 10:19:56;;;;;;;5.80;1.95;;;23.40;39.60;;;;;;5086005;28;20399;-67
2021/11/09 10:22:24;;;;;;;6.75;1.90;;;23.40;39.70;;;;;;5087927;28;20379;-66
2021/11/09 10:25:17;;;;;;;5.45;1.80;;;23.40;39.60;;;;;;5075406;28;20409;-64
2021/11/09 10:27:46;;;;;;;4.07;2.00;;;23.40;39.60;;;;;;5064322;28;20767;-66
2021/11/09 10:30:38;;;;;;;5.63;1.83;;;23.50;40.00;;;;;;5067442;28;20412;-66
2021/11/09 10:33:04;;;;;;;4.93;1.60;;;23.50;39.70;;;;;;5066000;28;20512;-67
2021/11/09 10:35:30;;;;;;;4.80;1.98;;;23.50;39.60;;;;;;5067685;28;20472;-67
2021/11/09 10:38:02;;;;;;;5.85;1.85;;;23.50;39.60;;;;;;5067396;28;20392;-67
2021/11/09 10:40:38;;;;;;;6.57;1.83;;;23.60;39.70;;;;;;5063706;28;20762;-67
2021/11/09 10:43:07;;;;;;;6.80;1.65;;;23.60;39.80;;;;;;5019744;28;20398;-66
2021/11/09 10:45:37;;;;;;;4.72;1.67;;;23.60;40.00;;;;;;5033879;28;20395;-66
2021/11/09 10:48:11;;;;;;;4.50;1.60;;;23.60;39.80;;;;;;5034033;28;20494;-67
2021/11/09 10:50:40;;;;;;;4.30;1.57;;;23.60;40.00;;;;;;5033838;28;20450;-66
2021/11/09 11:06:24;;;;;;;3.10;1.40;;;23.70;39.90;;;;;;5033832;28;20422;-67
2021/11/09 11:09:10;;;;;;;4.22;1.40;;;23.70;39.90;;;;;;5033686;28;20394;-67
2021/11/09 11:11:44;;;;;;;9.00;1.50;;;23.70;39.80;;;;;;5033626;28;20447;-66
2021/11/09 11:14:10;;;;;;;3.92;1.27;;;23.80;39.90;;;;;;5033421;28;20383;-66
2021/11/09 11:16:42;;;;;;;4.23;1.43;;;23.70;39.80;;;;;;5033663;28;20744;-66
2021/11/09 11:19:08;;;;;;;3.43;1.60;;;23.80;39.80;;;;;;5033494;28;20468;-67
2021/11/09 11:21:35;;;;;;;3.53;1.60;;;23.80;39.80;;;;;;5033555;28;20399;-67
2021/11/09 11:24:01;;;;;;;4.35;1.73;;;23.80;39.90;;;;;;5033458;28;20449;-66
2021/11/09 11:26:26;;;;;;;4.33;1.63;;;23.90;39.80;;;;;;5033442;28;20400;-65
2021/11/09 11:28:54;;;;;;;3.75;1.42;;;23.80;39.60;;;;;;5015887;28;20744;-67
2021/11/09 11:31:21;;;;;;;4.32;1.70;;;23.80;39.20;;;;;;5015471;28;20422;-66
2021/11/09 11:33:50;;;;;;;5.40;1.83;;;23.70;39.10;;;;;;5033316;28;20395;-65
2021/11/09 11:36:16;;;;;;;6.35;1.70;;;23.80;39.20;;;;;;5015257;28;20478;-65
2021/11/09 11:38:46;;;;;;;3.83;1.60;;;23.80;39.20;;;;;;5015076;28;20478;-64
2021/11/09 11:41:12;;;;;;;4.25;1.73;;;23.90;39.50;;;;;;5032720;28;20419;-66
2021/11/09 11:43:48;;;;;;;4.85;1.80;;;23.90;39.20;;;;;;5033021;28;20391;-66
2021/11/09 11:46:32;;;;;;;6.63;1.60;;;23.90;39.30;;;;;;5015208;28;20460;-66
2021/11/09 11:49:01;;;;;;;7.05;1.92;;;23.90;39.40;;;;;;5020686;28;20386;-69
2021/11/09 11:51:30;;;;;;;8.85;2.28;;;23.90;39.30;;;;;;5035051;28;20410;-68
2021/11/09 11:53:57;;;;;;;7.38;1.90;;;23.90;39.20;;;;;;5051589;28;20440;-66
2021/11/09 11:56:45;;;;;;;7.70;1.80;;;23.90;39.50;;;;;;5052608;28;20432;-66
2021/11/09 11:59:34;;;;;;;7.05;1.83;;;23.90;39.50;;;;;;5052473;28;20747;-67
2021/11/09 12:02:03;;;;;;;8.23;1.90;;;23.90;39.70;;;;;;5052234;28;20487;-67
2021/11/09 12:04:41;;;;;;;5.95;1.88;;;24.00;39.80;;;;;;5034414;28;20874;-66
2021/11/09 12:07:09;;;;;;;6.47;1.60;;;24.00;39.70;;;;;;5052526;28;20885;-66
2021/11/09 12:09:39;;;;;;;10.13;1.90;;;24.00;39.50;;;;;;5034203;28;20472;-66
2021/11/09 12:12:30;;;;;;;6.95;1.60;;;24.00;39.90;;;;;;5052000;28;20466;-67
2021/11/09 12:15:03;;;;;;;7.40;1.70;;;24.10;40.30;;;;;;5040924;28;20492;-65
2021/11/09 12:17:40;;;;;;;6.45;1.90;;;24.00;40.20;;;;;;5034447;28;20401;-66
2021/11/09 12:20:11;;;;;;;6.18;1.60;;;24.00;40.00;;;;;;5052197;28;20386;-64
2021/11/09 12:22:54;;;;;;;4.70;1.60;;;24.00;40.20;;;;;;5026420;28;20395;-66
2021/11/09 12:25:32;;;;;;;5.45;1.40;;;24.10;40.20;;;;;;5032328;28;20437;-68
2021/11/09 12:28:05;;;;;;;5.18;1.40;;;24.10;40.20;;;;;;5032134;28;20462;-66
2021/11/09 12:30:37;;;;;;;6.05;1.50;;;24.20;40.90;;;;;;5014205;28;20423;-66
2021/11/09 12:33:15;;;;;;;4.68;1.45;;;24.20;41.00;;;;;;5014327;28;20445;-67
2021/11/09 12:35:43;;;;;;;4.75;1.45;;;24.20;40.70;;;;;;5031920;28;20427;-69
2021/11/09 12:38:30;;;;;;;5.13;1.60;;;24.30;40.30;;;;;;5031792;28;20429;-69
2021/11/09 12:40:58;;;;;;;6.40;1.40;;;24.20;40.70;;;;;;5021690;28;20447;-67
2021/11/09 12:43:42;;;;;;;6.72;1.35;;;24.30;40.60;;;;;;5051703;28;20385;-65
2021/11/09 12:46:37;;;;;;;5.95;1.45;;;24.40;40.90;;;;;;5051873;28;20397;-66
2021/11/09 12:49:15;;;;;;;5.20;1.70;;;24.40;40.80;;;;;;5052010;28;20447;-67
2021/11/09 12:51:50;;;;;;;5.50;1.35;;;25.10;41.80;;;;;;5052447;28;20421;-67
2021/11/09 12:54:18;;;;;;;5.35;1.35;;;25.40;41.50;;;;;;5050897;28;20778;-67
2021/11/09 12:56:47;;;;;;;6.20;1.70;;;25.30;41.40;;;;;;5052072;28;20401;-66
2021/11/09 12:59:29;;;;;;;7.45;1.80;;;25.10;40.00;;;;;;5049760;28;20394;-65
2021/11/09 13:04:55;;;;;;;4.38;1.70;;;24.90;40.70;;;;;;5051455;28;20552;-64
2021/11/09 13:07:40;;;;;;;6.53;1.80;;;24.90;40.50;;;;;;5051243;28;20392;-64
2021/11/09 13:10:19;;;;;;;5.65;1.70;;;24.90;40.10;;;;;;5051273;28;20897;-64
2021/11/09 13:12:49;;;;;;;5.60;1.80;;;24.80;40.40;;;;;;5051093;28;21140;-65
2021/11/09 13:15:17;;;;;;;4.57;1.80;;;24.80;40.50;;;;;;5051539;28;20440;-64
2021/11/09 13:17:47;;;;;;;7.50;1.80;;;24.80;40.30;;;;;;5048253;28;20748;-64
2021/11/09 13:20:20;;;;;;;4.18;1.40;;;24.90;40.20;;;;;;5048334;28;20399;-66
2021/11/09 13:22:52;;;;;;;5.32;1.50;;;24.80;40.10;;;;;;5046082;28;20394;-67
2021/11/09 13:25:18;;;;;;;4.03;1.52;;;24.80;40.00;;;;;;5049388;28;21032;-68
2021/11/09 13:27:48;;;;;;;6.18;1.50;;;24.90;40.00;;;;;;5047556;28;20484;-67
2021/11/09 13:30:21;;;;;;;4.80;1.60;;;24.90;40.10;;;;;;5049680;28;20422;-65
2021/11/09 13:32:50;;;;;;;7.05;1.80;;;24.90;40.20;;;;;;5043942;28;20406;-72
2021/11/09 13:35:23;;;;;;;8.43;1.50;;;24.90;40.50;;;;;;5048543;28;20385;-67
2021/11/09 13:37:51;;;;;;;7.35;1.88;;;24.80;41.00;;;;;;5046170;28;20932;-66
2021/11/09 13:40:19;;;;;;;8.55;1.70;;;24.90;40.50;;;;;;5049447;28;20404;-67
2021/11/09 13:42:57;;;;;;;4.80;1.42;;;24.90;40.30;;;;;;5014065;28;20802;-66
2021/11/09 13:45:22;;;;;;;6.07;1.50;;;25.00;40.00;;;;;;5029418;28;20394;-66
2021/11/09 13:47:48;;;;;;;5.15;1.40;;;25.00;40.10;;;;;;5029135;28;20399;-65
2021/11/09 13:50:14;;;;;;;10.05;1.90;;;25.00;40.40;;;;;;5013076;28;20478;-67
2021/11/09 13:52:45;;;;;;;10.80;2.10;;;24.80;38.50;;;;;;5022110;28;20403;-67
2021/11/09 13:55:13;;;;;;;9.45;2.45;;;24.80;38.30;;;;;;5029574;28;20470;-67
2021/11/09 13:57:39;;;;;;;7.85;1.50;;;24.70;37.20;;;;;;5011296;28;20757;-66
2021/11/09 14:00:29;;;;;;;6.25;1.60;;;24.60;37.50;;;;;;5027633;28;20453;-67
2021/11/09 14:16:37;;;;;;;7.00;1.42;;;24.30;37.80;;;;;;5031556;28;20406;-67
2021/11/09 14:19:05;;;;;;;4.93;1.70;;;24.30;37.90;;;;;;5017236;28;20485;-68
2021/11/09 14:21:37;;;;;;;6.57;1.90;;;24.20;37.90;;;;;;5034810;28;20407;-68
2021/11/09 14:24:17;;;;;;;4.85;1.80;;;24.10;36.90;;;;;;5017258;28;20395;-67
2021/11/09 14:26:46;;;;;;;9.27;1.90;;;24.00;37.10;;;;;;5035157;28;20387;-67
2021/11/09 14:29:19;;;;;;;4.43;1.80;;;24.00;37.50;;;;;;5034754;28;20379;-68
2021/11/09 14:32:00;;;;;;;5.60;1.88;;;24.00;37.80;;;;;;5034582;28;20435;-68
2021/11/09 14:34:27;;;;;;;5.22;1.80;;;24.00;37.70;;;;;;5033202;28;20391;-67
2021/11/09 14:37:04;;;;;;;4.78;1.60;;;24.00;37.50;;;;;;5033352;28;20403;-68
2021/11/09 14:39:30;;;;;;;3.90;1.67;;;23.90;37.60;;;;;;5017092;28;20509;-68
2021/11/09 14:42:14;;;;;;;4.05;1.77;;;23.90;37.70;;;;;;5034616;28;20872;-67
2021/11/09 14:45:14;;;;;;;3.35;1.67;;;23.80;37.70;;;;;;5034601;28;20387;-67
2021/11/09 14:47:47;;;;;;;5.60;2.08;;;23.80;37.70;;;;;;5034464;28;20434;-67
2021/11/09 14:50:34;;;;;;;5.57;1.80;;;23.70;37.80;;;;;;5034545;28;20474;-67
2021/11/09 14:53:19;;;;;;;4.82;1.70;;;23.80;38.00;;;;;;5034619;28;20395;-68
2021/11/09 14:56:08;;;;;;;4.68;1.73;;;23.80;37.80;;;;;;5034020;28;20397;-69
2021/11/09 14:58:36;;;;;;;7.18;2.45;;;23.90;37.80;;;;;;5034264;28;20383;-68
2021/11/09 15:01:20;;;;;;;9.90;2.00;;;23.80;38.20;;;;;;5034355;28;20415;-68
2021/11/09 15:03:54;;;;;;;6.28;2.00;;;23.80;38.00;;;;;;5034245;28;20387;-67
2021/11/09 15:06:29;;;;;;;6.22;2.00;;;23.80;38.00;;;;;;5016213;28;20844;-67
2021/11/09 15:09:13;;;;;;;8.40;1.80;;;23.80;38.00;;;;;;5034232;28;20440;-69
2021/11/09 15:33:29;;;;;;;8.57;2.30;;;23.80;39.40;;;;;;5014239;28;20462;-67
2021/11/09 15:38:34;;;;;;;9.00;2.53;;;23.70;40.60;;;;;;4998055;28;20385;-67
2021/11/09 15:41:00;;;;;;;7.35;2.30;;;23.70;40.40;;;;;;5013764;28;20423;-67
2021/11/09 15:43:26;;;;;;;8.23;2.50;;;23.70;40.70;;;;;;4996068;28;20435;-67
2021/11/09 15:45:54;;;;;;;9.60;2.83;;;23.70;41.10;;;;;;5014912;28;20393;-67
2021/11/09 15:48:21;;;;;;;10.40;2.35;;;23.70;41.60;;;;;;5033794;28;20395;-68
2021/11/09 15:50:47;;;;;;;7.10;2.45;;;23.70;42.20;;;;;;5015511;28;20536;-67
2021/11/09 15:53:13;;;;;;;11.80;2.65;;;23.70;41.40;;;;;;5015481;28;20818;-68
2021/11/09 15:55:39;;;;;;;7.82;2.70;;;23.80;42.00;;;;;;5015396;28;20498;-67
2021/11/09 15:58:06;;;;;;;8.30;2.90;;;23.70;42.00;;;;;;5032419;28;20471;-67
2021/11/09 16:00:32;;;;;;;6.80;2.50;;;23.80;41.70;;;;;;5014205;28;20407;-67
2021/11/09 16:02:58;;;;;;;8.38;2.70;;;23.80;41.60;;;;;;5031700;28;20449;-68
2021/11/09 16:05:24;;;;;;;7.00;2.80;;;23.80;41.60;;;;;;5014082;28;20442;-67
2021/11/09 16:07:52;;;;;;;7.43;3.00;;;23.80;41.90;;;;;;5014017;28;20773;-67
2021/11/09 16:10:19;;;;;;;10.50;3.15;;;23.80;42.00;;;;;;5031025;28;20398;-66
2021/11/09 16:12:46;;;;;;;7.35;3.03;;;23.90;41.70;;;;;;5030241;28;20403;-68
2021/11/09 16:15:12;;;;;;;6.78;2.40;;;23.80;41.60;;;;;;5031264;28;20425;-67